Colorado Springs, CO

2:20 AM MDT on May 23, 2015 (GMT -0600)
High Divide, Black Forest | | Change Station
CLOSE
Current Station
Personal Weather Station
Location: COLORADO SPGS, CO
Elevation: 7612 ft
Nearby Weather Stations

Elev 7612 ft 39.06 °N, 104.73 °W | Updated 3 days ago

Partly Cloudy
Partly Cloudy
44 °F
Feels Like 41 °F
N
7
Wind Variable Wind from NNE
Gusts 11 mph

Today
High -- | Low -- °F
--% Chance of Precip.
Yesterday
High -- | Low -- °F
Precip. -- in
5:39 AM 8:11 PM
Waxing Crescent, 28% visible
Pressure 29.91 in
Visibility 10.0 miles
Clouds Few 2200 ft
Scattered Clouds 4100 ft
Windchill 41 °F
Dew Point 40 °F
Humidity 86%
Rainfall in
Snow Depth Not available.
UV 0 out of 12
Pollen 4.90 out of 12
Air Quality Not available.
Flu Activity Sporadic
METAR KAFF 230758Z AUTO 32005KT 10SM FEW022 SCT041 08/07 A3006 RMK AO2 RAB23E35DZB35E39RAB39E53DZB53E55 SLP128 P0000 T00770073

More Conditions Fewer Conditions

Pressure 29.91 in
Visibility 10.0 miles
Clouds Few 2200 ft
Scattered Clouds 4100 ft
Windchill 41 °F
Dew Point 40 °F
Humidity 86%
Rainfall in
Snow Depth Not available.
UV 0 out of 12
Pollen 4.90 out of 12
Air Quality Not available.
Flu Activity Sporadic
METAR KAFF 230758Z AUTO 32005KT 10SM FEW022 SCT041 08/07 A3006 RMK AO2 RAB23E35DZB35E39RAB39E53DZB53E55 SLP128 P0000 T00770073

More Conditions Fewer Conditions

10-Day Weather Forecast

Almanac

Astronomy

May. 23, 2015 Rise Set
Actual Time
Civil Twilight
Nautical Twilight
Astronomical Twilight
Moon
Length of Visible Light
Length of Day
Tomorrow will be .
, % of the Moon is Illuminated

Today's Extremes

State Highs State Lows

Community

WunderPhotos

Upload Photos

1,823,401 photos uploaded!

WunderBlogs® & News

Nearby

Air Quality

  Air Quality AQ Index Pollutant
Not available.

Snow Depth

Station Depth Elevation

Earthquake Activity

City Distance Mag. Time & Date
Minimum magnitude displayed is 2.5.

Coastal Water Temperatures

Place Temperature

Stations

Nearby Weather Stations

Station Location Temp. Windchill Dew Point Humidity Wind Precip. Elev Updated Type